sensor_id;sensor_type;location;lat;lon;timestamp;temperature;humidity
55054;DHT22;40954;45.668;18.980;2022-10-13T20:30:11;486.40;2380.80
55054;DHT22;40954;45.668;18.980;2022-10-13T20:32:37;461.30;2380.80
55054;DHT22;40954;45.668;18.980;2022-10-13T20:35:03;461.30;2380.80
55054;DHT22;40954;45.668;18.980;2022-10-13T20:37:29;461.20;2380.80
55054;DHT22;40954;45.668;18.980;2022-10-13T20:39:54;461.10;2380.80
55054;DHT22;40954;45.668;18.980;2022-10-13T20:42:21;461.20;2380.80
55054;DHT22;40954;45.668;18.980;2022-10-13T20:44:47;461.10;2380.80
55054;DHT22;40954;45.668;18.980;2022-10-13T20:47:12;461.10;2380.80
55054;DHT22;40954;45.668;18.980;2022-10-13T20:49:38;461.10;2380.80
55054;DHT22;40954;45.668;18.980;2022-10-13T20:52:04;461.10;2380.80
55054;DHT22;40954;45.668;18.980;2022-10-13T20:54:30;461.10;2380.80
55054;DHT22;40954;45.668;18.980;2022-10-13T20:56:55;461.10;2380.80
55054;DHT22;40954;45.668;18.980;2022-10-13T20:59:22;461.00;2380.80
55054;DHT22;40954;45.668;18.980;2022-10-13T21:01:48;461.00;2380.80
55054;DHT22;40954;45.668;18.980;2022-10-13T21:04:14;461.00;2380.80
55054;DHT22;40954;45.668;18.980;2022-10-13T21:06:41;460.90;2380.80
55054;DHT22;40954;45.668;18.980;2022-10-13T21:09:07;461.00;2380.80
55054;DHT22;40954;45.668;18.980;2022-10-13T21:11:33;461.00;2380.80
55054;DHT22;40954;45.668;18.980;2022-10-13T21:13:59;461.00;2380.80
55054;DHT22;40954;45.668;18.980;2022-10-13T21:16:27;461.00;2380.80
55054;DHT22;40954;45.668;18.980;2022-10-13T21:18:55;460.90;2380.80
55054;DHT22;40954;45.668;18.980;2022-10-13T21:21:24;460.90;2380.80
55054;DHT22;40954;45.668;18.980;2022-10-13T21:23:54;460.90;2380.80
55054;DHT22;40954;45.668;18.980;2022-10-13T21:26:21;460.80;2380.80
55054;DHT22;40954;45.668;18.980;2022-10-13T21:28:47;460.80;2380.80
55054;DHT22;40954;45.668;18.980;2022-10-13T21:31:14;460.80;2380.80
55054;DHT22;40954;45.668;18.980;2022-10-13T21:33:41;460.80;2380.80
55054;DHT22;40954;45.668;18.980;2022-10-13T21:36:13;460.80;2380.80
55054;DHT22;40954;45.668;18.980;2022-10-13T21:38:39;460.80;2380.80
55054;DHT22;40954;45.668;18.980;2022-10-13T21:41:07;460.80;2380.80
55054;DHT22;40954;45.668;18.980;2022-10-13T21:43:33;460.80;2380.80
55054;DHT22;40954;45.668;18.980;2022-10-13T21:46:20;460.80;2380.80
55054;DHT22;40954;45.668;18.980;2022-10-13T21:48:47;460.80;2380.80
55054;DHT22;40954;45.668;18.980;2022-10-13T21:51:19;436.10;2355.20
55054;DHT22;40954;45.668;18.980;2022-10-13T21:53:49;436.10;2355.20
55054;DHT22;40954;45.668;18.980;2022-10-13T21:56:16;436.10;2355.20
55054;DHT22;40954;45.668;18.980;2022-10-13T21:58:42;436.10;2355.20
55054;DHT22;40954;45.668;18.980;2022-10-13T22:01:07;436.10;2355.20
55054;DHT22;40954;45.668;18.980;2022-10-13T22:03:34;436.10;2355.20
55054;DHT22;40954;45.668;18.980;2022-10-13T22:06:08;436.10;2355.20
55054;DHT22;40954;45.668;18.980;2022-10-13T22:08:36;436.00;2355.20
55054;DHT22;40954;45.668;18.980;2022-10-13T22:11:02;436.00;2355.20
55054;DHT22;40954;45.668;18.980;2022-10-13T22:13:28;436.10;2355.20
55054;DHT22;40954;45.668;18.980;2022-10-13T22:15:53;436.10;2355.20
55054;DHT22;40954;45.668;18.980;2022-10-13T22:18:19;436.10;2355.20
55054;DHT22;40954;45.668;18.980;2022-10-13T22:20:45;436.10;2355.20
55054;DHT22;40954;45.668;18.980;2022-10-13T22:23:10;436.10;2355.20
55054;DHT22;40954;45.668;18.980;2022-10-13T22:25:43;436.00;2355.20
55054;DHT22;40954;45.668;18.980;2022-10-13T22:28:09;436.00;2355.20
55054;DHT22;40954;45.668;18.980;2022-10-13T22:30:35;436.00;2355.20
55054;DHT22;40954;45.668;18.980;2022-10-13T22:33:01;436.00;2355.20
55054;DHT22;40954;45.668;18.980;2022-10-13T22:35:27;436.00;2355.20
55054;DHT22;40954;45.668;18.980;2022-10-13T22:37:53;436.00;2355.20
55054;DHT22;40954;45.668;18.980;2022-10-13T22:40:18;435.90;2355.20
55054;DHT22;40954;45.668;18.980;2022-10-13T22:42:44;435.90;2355.20
55054;DHT22;40954;45.668;18.980;2022-10-13T22:45:10;436.00;2355.20
55054;DHT22;40954;45.668;18.980;2022-10-13T22:47:35;435.90;2355.20
55054;DHT22;40954;45.668;18.980;2022-10-13T22:50:01;435.90;2355.20
55054;DHT22;40954;45.668;18.980;2022-10-13T22:52:27;436.00;2355.20
55054;DHT22;40954;45.668;18.980;2022-10-13T22:54:53;435.80;2355.20
